sensor_id;sensor_type;location;lat;lon;timestamp;temperature;humidity
16995;DHT22;8614;48.522;9.206;2023-04-03T02:02:21;4.10;99.90
16995;DHT22;8614;48.522;9.206;2023-04-03T02:04:48;4.10;99.90
16995;DHT22;8614;48.522;9.206;2023-04-03T02:07:15;4.10;99.90
16995;DHT22;8614;48.522;9.206;2023-04-03T02:09:41;4.10;99.90
16995;DHT22;8614;48.522;9.206;2023-04-03T02:12:08;4.10;99.90
16995;DHT22;8614;48.522;9.206;2023-04-03T02:14:35;4.10;99.90
16995;DHT22;8614;48.522;9.206;2023-04-03T02:17:02;4.10;99.90
16995;DHT22;8614;48.522;9.206;2023-04-03T02:19:35;4.00;99.90
16995;DHT22;8614;48.522;9.206;2023-04-03T02:22:02;4.00;99.90
16995;DHT22;8614;48.522;9.206;2023-04-03T02:24:29;3.90;99.90
16995;DHT22;8614;48.522;9.206;2023-04-03T02:26:56;3.90;99.90
16995;DHT22;8614;48.522;9.206;2023-04-03T02:29:23;3.90;99.90
16995;DHT22;8614;48.522;9.206;2023-04-03T02:31:50;3.90;99.90
16995;DHT22;8614;48.522;9.206;2023-04-03T02:34:18;3.90;99.90
16995;DHT22;8614;48.522;9.206;2023-04-03T02:36:47;3.90;99.90
16995;DHT22;8614;48.522;9.206;2023-04-03T02:39:15;3.90;99.90
16995;DHT22;8614;48.522;9.206;2023-04-03T02:41:44;3.80;99.90
16995;DHT22;8614;48.522;9.206;2023-04-03T02:44:17;3.80;99.90
16995;DHT22;8614;48.522;9.206;2023-04-03T02:46:45;3.80;99.90
16995;DHT22;8614;48.522;9.206;2023-04-03T02:49:12;3.80;99.90
16995;DHT22;8614;48.522;9.206;2023-04-03T02:51:39;3.80;99.90
16995;DHT22;8614;48.522;9.206;2023-04-03T02:54:07;3.80;99.90
16995;DHT22;8614;48.522;9.206;2023-04-03T02:56:37;3.80;99.90
16995;DHT22;8614;48.522;9.206;2023-04-03T02:59:04;3.80;99.90
16995;DHT22;8614;48.522;9.206;2023-04-03T03:01:33;3.80;99.90
16995;DHT22;8614;48.522;9.206;2023-04-03T03:04:00;3.80;99.90
16995;DHT22;8614;48.522;9.206;2023-04-03T03:06:27;3.80;99.90
16995;DHT22;8614;48.522;9.206;2023-04-03T03:08:54;3.80;99.90
16995;DHT22;8614;48.522;9.206;2023-04-03T03:11:22;3.80;99.90
16995;DHT22;8614;48.522;9.206;2023-04-03T03:13:49;3.80;99.90
16995;DHT22;8614;48.522;9.206;2023-04-03T03:16:16;3.80;99.90
16995;DHT22;8614;48.522;9.206;2023-04-03T03:18:43;3.80;99.90
16995;DHT22;8614;48.522;9.206;2023-04-03T03:21:10;3.80;99.90
16995;DHT22;8614;48.522;9.206;2023-04-03T03:23:37;3.70;99.90
16995;DHT22;8614;48.522;9.206;2023-04-03T03:26:07;3.80;99.90
16995;DHT22;8614;48.522;9.206;2023-04-03T03:28:37;3.70;99.90
16995;DHT22;8614;48.522;9.206;2023-04-03T03:31:23;3.70;99.90
16995;DHT22;8614;48.522;9.206;2023-04-03T03:33:50;3.60;99.90
16995;DHT22;8614;48.522;9.206;2023-04-03T03:36:17;3.70;99.90
16995;DHT22;8614;48.522;9.206;2023-04-03T03:38:45;3.70;99.90
16995;DHT22;8614;48.522;9.206;2023-04-03T03:41:11;3.70;99.90
16995;DHT22;8614;48.522;9.206;2023-04-03T03:43:41;3.80;99.90
16995;DHT22;8614;48.522;9.206;2023-04-03T03:46:08;3.70;99.90
16995;DHT22;8614;48.522;9.206;2023-04-03T03:48:35;3.80;99.90
16995;DHT22;8614;48.522;9.206;2023-04-03T03:51:02;3.80;99.90
16995;DHT22;8614;48.522;9.206;2023-04-03T03:53:34;3.70;99.90
16995;DHT22;8614;48.522;9.206;2023-04-03T03:56:05;3.70;99.90
16995;DHT22;8614;48.522;9.206;2023-04-03T03:58:33;3.80;99.90
16995;DHT22;8614;48.522;9.206;2023-04-03T04:01:04;3.70;99.90
16995;DHT22;8614;48.522;9.206;2023-04-03T04:03:33;3.70;99.90
16995;DHT22;8614;48.522;9.206;2023-04-03T04:06:01;3.70;99.90
16995;DHT22;8614;48.522;9.206;2023-04-03T04:08:27;3.80;99.90
16995;DHT22;8614;48.522;9.206;2023-04-03T04:10:55;3.80;99.90
16995;DHT22;8614;48.522;9.206;2023-04-03T04:13:23;3.80;99.90
16995;DHT22;8614;48.522;9.206;2023-04-03T04:15:50;3.80;99.90
16995;DHT22;8614;48.522;9.206;2023-04-03T04:18:18;3.80;99.90
16995;DHT22;8614;48.522;9.206;2023-04-03T04:20:48;3.70;99.90
16995;DHT22;8614;48.522;9.206;2023-04-03T04:23:17;3.70;99.90
16995;DHT22;8614;48.522;9.206;2023-04-03T04:25:45;3.70;99.90
16995;DHT22;8614;48.522;9.206;2023-04-03T04:28:13;3.70;99.90
16995;DHT22;8614;48.522;9.206;2023-04-03T04:30:41;3.70;99.90
16995;DHT22;8614;48.522;9.206;2023-04-03T04:33:08;3.70;99.90
16995;DHT22;8614;48.522;9.206;2023-04-03T04:35:37;3.70;99.90
16995;DHT22;8614;48.522;9.206;2023-04-03T04:38:04;3.70;99.90
16995;DHT22;8614;48.522;9.206;2023-04-03T04:40:31;3.70;99.90
16995;DHT22;8614;48.522;9.206;2023-04-03T04:42:58;3.70;99.90
16995;DHT22;8614;48.522;9.206;2023-04-03T04:45:25;3.70;99.90
16995;DHT22;8614;48.522;9.206;2023-04-03T04:47:55;3.70;99.90
16995;DHT22;8614;48.522;9.206;2023-04-03T04:50:23;3.70;99.90
16995;DHT22;8614;48.522;9.206;2023-04-03T04:52:51;3.80;99.90
16995;DHT22;8614;48.522;9.206;2023-04-03T04:55:18;3.70;99.90
16995;DHT22;8614;48.522;9.206;2023-04-03T04:57:46;3.70;99.90
16995;DHT22;8614;48.522;9.206;2023-04-03T05:00:15;3.70;99.90
16995;DHT22;8614;48.522;9.206;2023-04-03T05:02:42;3.70;99.90
16995;DHT22;8614;48.522;9.206;2023-04-03T05:05:09;3.70;99.90
16995;DHT22;8614;48.522;9.206;2023-04-03T05:07:37;3.70;99.90
16995;DHT22;8614;48.522;9.206;2023-04-03T05:10:08;3.80;99.90
16995;DHT22;8614;48.522;9.206;2023-04-03T05:12:35;3.80;99.90
16995;DHT22;8614;48.522;9.206;2023-04-03T05:15:04;3.80;99.90
16995;DHT22;8614;48.522;9.206;2023-04-03T05:17:32;3.80;99.90
16995;DHT22;8614;48.522;9.206;2023-04-03T05:20:00;3.80;99.90
16995;DHT22;8614;48.522;9.206;2023-04-03T05:22:28;3.80;99.90
16995;DHT22;8614;48.522;9.206;2023-04-03T05:24:59;3.80;99.90
16995;DHT22;8614;48.522;9.206;2023-04-03T05:27:28;3.80;99.90
16995;DHT22;8614;48.522;9.206;2023-04-03T05:29:57;3.80;99.90
16995;DHT22;8614;48.522;9.206;2023-04-03T05:32:25;3.90;99.90
16995;DHT22;8614;48.522;9.206;2023-04-03T05:35:05;3.80;99.90
16995;DHT22;8614;48.522;9.206;2023-04-03T05:37:33;3.90;99.90
16995;DHT22;8614;48.522;9.206;2023-04-03T05:40:00;3.90;99.90
16995;DHT22;8614;48.522;9.206;2023-04-03T05:42:30;3.90;99.90
16995;DHT22;8614;48.522;9.206;2023-04-03T05:44:57;3.90;99.90
16995;DHT22;8614;48.522;9.206;2023-04-03T05:47:24;4.00;99.90
16995;DHT22;8614;48.522;9.206;2023-04-03T05:49:51;4.00;99.90
16995;DHT22;8614;48.522;9.206;2023-04-03T05:52:21;4.00;99.90
16995;DHT22;8614;48.522;9.206;2023-04-03T05:54:50;4.00;99.90
16995;DHT22;8614;48.522;9.206;2023-04-03T05:57:23;4.10;99.90
16995;DHT22;8614;48.522;9.206;2023-04-03T05:59:51;4.20;99.90
16995;DHT22;8614;48.522;9.206;2023-04-03T06:02:21;4.20;99.90
16995;DHT22;8614;48.522;9.206;2023-04-03T06:04:49;4.30;99.90
16995;DHT22;8614;48.522;9.206;2023-04-03T06:07:18;4.20;99.90
16995;DHT22;8614;48.522;9.206;2023-04-03T06:09:49;4.30;99.90
16995;DHT22;8614;48.522;9.206;2023-04-03T06:12:17;4.30;99.90
16995;DHT22;8614;48.522;9.206;2023-04-03T06:14:44;4.20;99.90
16995;DHT22;8614;48.522;9.206;2023-04-03T06:17:14;4.30;99.90
16995;DHT22;8614;48.522;9.206;2023-04-03T06:19:43;4.30;99.90
16995;DHT22;8614;48.522;9.206;2023-04-03T06:22:10;4.40;99.90
16995;DHT22;8614;48.522;9.206;2023-04-03T06:24:38;4.40;99.90
16995;DHT22;8614;48.522;9.206;2023-04-03T06:27:04;4.40;99.90
16995;DHT22;8614;48.522;9.206;2023-04-03T06:29:31;4.30;99.90
16995;DHT22;8614;48.522;9.206;2023-04-03T06:31:58;4.30;99.90
16995;DHT22;8614;48.522;9.206;2023-04-03T06:34:26;4.30;99.90
16995;DHT22;8614;48.522;9.206;2023-04-03T06:36:53;4.30;99.90
16995;DHT22;8614;48.522;9.206;2023-04-03T06:39:21;4.30;99.90
16995;DHT22;8614;48.522;9.206;2023-04-03T06:41:49;4.50;99.90
16995;DHT22;8614;48.522;9.206;2023-04-03T06:44:16;4.50;99.90
16995;DHT22;8614;48.522;9.206;2023-04-03T06:46:44;4.50;99.90
16995;DHT22;8614;48.522;9.206;2023-04-03T06:49:12;4.50;99.90
16995;DHT22;8614;48.522;9.206;2023-04-03T06:51:40;4.40;99.90
16995;DHT22;8614;48.522;9.206;2023-04-03T06:54:07;4.40;99.90
16995;DHT22;8614;48.522;9.206;2023-04-03T06:56:34;4.50;99.90
16995;DHT22;8614;48.522;9.206;2023-04-03T06:59:01;4.70;99.90
16995;DHT22;8614;48.522;9.206;2023-04-03T07:01:30;4.70;99.90
16995;DHT22;8614;48.522;9.206;2023-04-03T07:03:58;4.80;99.90
16995;DHT22;8614;48.522;9.206;2023-04-03T07:06:25;5.10;99.90
16995;DHT22;8614;48.522;9.206;2023-04-03T07:08:54;5.20;99.90
16995;DHT22;8614;48.522;9.206;2023-04-03T07:11:21;5.40;99.90
16995;DHT22;8614;48.522;9.206;2023-04-03T07:13:49;5.30;99.90
16995;DHT22;8614;48.522;9.206;2023-04-03T07:16:15;5.40;99.90
16995;DHT22;8614;48.522;9.206;2023-04-03T07:18:42;5.40;99.90
16995;DHT22;8614;48.522;9.206;2023-04-03T07:21:09;5.40;99.90
16995;DHT22;8614;48.522;9.206;2023-04-03T07:23:36;5.50;99.90
16995;DHT22;8614;48.522;9.206;2023-04-03T07:26:04;5.60;99.90
16995;DHT22;8614;48.522;9.206;2023-04-03T07:28:32;5.70;99.90
16995;DHT22;8614;48.522;9.206;2023-04-03T07:31:01;5.70;99.90
16995;DHT22;8614;48.522;9.206;2023-04-03T07:33:29;6.00;99.90
16995;DHT22;8614;48.522;9.206;2023-04-03T07:35:56;6.20;99.90
16995;DHT22;8614;48.522;9.206;2023-04-03T07:38:23;6.00;99.90
16995;DHT22;8614;48.522;9.206;2023-04-03T07:40:51;6.00;99.90
16995;DHT22;8614;48.522;9.206;2023-04-03T07:43:20;6.20;99.90
16995;DHT22;8614;48.522;9.206;2023-04-03T07:45:48;6.40;99.90
16995;DHT22;8614;48.522;9.206;2023-04-03T07:48:17;6.50;99.90
16995;DHT22;8614;48.522;9.206;2023-04-03T07:50:44;6.40;99.90
16995;DHT22;8614;48.522;9.206;2023-04-03T07:53:11;6.60;99.90
16995;DHT22;8614;48.522;9.206;2023-04-03T07:55:39;6.70;99.90
16995;DHT22;8614;48.522;9.206;2023-04-03T07:58:09;6.80;99.90
16995;DHT22;8614;48.522;9.206;2023-04-03T08:00:38;6.80;99.90
16995;DHT22;8614;48.522;9.206;2023-04-03T08:03:05;7.00;99.90
16995;DHT22;8614;48.522;9.206;2023-04-03T08:05:36;7.20;99.90
16995;DHT22;8614;48.522;9.206;2023-04-03T08:08:03;7.40;99.90
16995;DHT22;8614;48.522;9.206;2023-04-03T08:10:31;7.50;99.90
16995;DHT22;8614;48.522;9.206;2023-04-03T08:12:58;7.40;99.90
16995;DHT22;8614;48.522;9.206;2023-04-03T08:15:25;7.40;99.90
16995;DHT22;8614;48.522;9.206;2023-04-03T08:17:54;7.30;99.90
16995;DHT22;8614;48.522;9.206;2023-04-03T08:20:21;7.40;99.90
16995;DHT22;8614;48.522;9.206;2023-04-03T08:22:48;7.40;99.90
16995;DHT22;8614;48.522;9.206;2023-04-03T08:25:15;7.30;99.90
16995;DHT22;8614;48.522;9.206;2023-04-03T08:27:43;7.30;99.90
16995;DHT22;8614;48.522;9.206;2023-04-03T08:30:10;7.40;99.90
16995;DHT22;8614;48.522;9.206;2023-04-03T08:32:37;7.40;99.90
16995;DHT22;8614;48.522;9.206;2023-04-03T08:35:06;7.30;99.90
16995;DHT22;8614;48.522;9.206;2023-04-03T08:37:35;7.40;99.90
16995;DHT22;8614;48.522;9.206;2023-04-03T08:40:02;7.70;99.90
16995;DHT22;8614;48.522;9.206;2023-04-03T08:42:36;7.60;99.90
16995;DHT22;8614;48.522;9.206;2023-04-03T08:45:10;7.50;99.90
16995;DHT22;8614;48.522;9.206;2023-04-03T08:47:42;7.40;99.90
16995;DHT22;8614;48.522;9.206;2023-04-03T08:50:14;7.30;99.90
16995;DHT22;8614;48.522;9.206;2023-04-03T08:52:44;7.10;99.90
16995;DHT22;8614;48.522;9.206;2023-04-03T08:55:19;7.20;99.90
16995;DHT22;8614;48.522;9.206;2023-04-03T08:57:48;7.20;99.90
16995;DHT22;8614;48.522;9.206;2023-04-03T09:00:20;7.00;99.90
16995;DHT22;8614;48.522;9.206;2023-04-03T09:02:49;6.90;99.90
16995;DHT22;8614;48.522;9.206;2023-04-03T09:05:20;7.10;99.90
16995;DHT22;8614;48.522;9.206;2023-04-03T09:07:50;7.30;99.90
16995;DHT22;8614;48.522;9.206;2023-04-03T09:10:24;7.50;99.90
16995;DHT22;8614;48.522;9.206;2023-04-03T09:12:58;7.50;99.90
16995;DHT22;8614;48.522;9.206;2023-04-03T09:15:27;7.40;99.90
16995;DHT22;8614;48.522;9.206;2023-04-03T09:17:59;7.50;99.90
16995;DHT22;8614;48.522;9.206;2023-04-03T09:20:38;7.60;99.90
16995;DHT22;8614;48.522;9.206;2023-04-03T09:23:17;7.80;99.90
16995;DHT22;8614;48.522;9.206;2023-04-03T09:25:45;7.60;99.90
16995;DHT22;8614;48.522;9.206;2023-04-03T09:28:12;7.40;99.90
16995;DHT22;8614;48.522;9.206;2023-04-03T09:30:39;7.40;99.90
16995;DHT22;8614;48.522;9.206;2023-04-03T09:33:06;7.40;99.90
16995;DHT22;8614;48.522;9.206;2023-04-03T09:35:36;7.10;99.90
16995;DHT22;8614;48.522;9.206;2023-04-03T09:38:16;7.10;99.90
16995;DHT22;8614;48.522;9.206;2023-04-03T09:40:44;7.30;99.90
16995;DHT22;8614;48.522;9.206;2023-04-03T09:43:26;7.40;99.90
16995;DHT22;8614;48.522;9.206;2023-04-03T09:45:53;7.30;99.90
16995;DHT22;8614;48.522;9.206;2023-04-03T09:48:21;7.40;99.90
16995;DHT22;8614;48.522;9.206;2023-04-03T09:50:58;7.50;99.90
16995;DHT22;8614;48.522;9.206;2023-04-03T09:53:32;7.50;99.90
16995;DHT22;8614;48.522;9.206;2023-04-03T09:56:04;7.50;99.90
16995;DHT22;8614;48.522;9.206;2023-04-03T09:58:32;7.60;99.90
16995;DHT22;8614;48.522;9.206;2023-04-03T10:01:01;7.60;99.90
16995;DHT22;8614;48.522;9.206;2023-04-03T10:03:31;7.70;99.90
16995;DHT22;8614;48.522;9.206;2023-04-03T10:06:03;7.60;99.90
16995;DHT22;8614;48.522;9.206;2023-04-03T10:08:32;7.80;99.90
16995;DHT22;8614;48.522;9.206;2023-04-03T10:11:12;7.90;99.90
16995;DHT22;8614;48.522;9.206;2023-04-03T10:13:53;7.80;99.90
16995;DHT22;8614;48.522;9.206;2023-04-03T10:16:26;8.10;99.90
16995;DHT22;8614;48.522;9.206;2023-04-03T10:19:05;8.20;99.90
16995;DHT22;8614;48.522;9.206;2023-04-03T10:21:42;8.30;99.90
16995;DHT22;8614;48.522;9.206;2023-04-03T10:24:15;8.20;99.90
16995;DHT22;8614;48.522;9.206;2023-04-03T10:26:52;8.20;99.90
16995;DHT22;8614;48.522;9.206;2023-04-03T10:29:34;8.00;99.90
16995;DHT22;8614;48.522;9.206;2023-04-03T10:32:13;7.90;99.90
16995;DHT22;8614;48.522;9.206;2023-04-03T10:34:43;7.70;99.90
16995;DHT22;8614;48.522;9.206;2023-04-03T10:37:18;7.50;99.90
16995;DHT22;8614;48.522;9.206;2023-04-03T10:39:53;7.50;99.90
16995;DHT22;8614;48.522;9.206;2023-04-03T10:42:25;7.20;99.90
16995;DHT22;8614;48.522;9.206;2023-04-03T10:45:04;7.10;99.90
16995;DHT22;8614;48.522;9.206;2023-04-03T10:47:38;7.30;99.90
16995;DHT22;8614;48.522;9.206;2023-04-03T10:50:23;7.30;99.90
16995;DHT22;8614;48.522;9.206;2023-04-03T10:52:57;7.50;99.90
16995;DHT22;8614;48.522;9.206;2023-04-03T10:55:34;7.50;99.90
16995;DHT22;8614;48.522;9.206;2023-04-03T10:58:04;7.60;99.90
16995;DHT22;8614;48.522;9.206;2023-04-03T11:00:36;7.70;99.90
16995;DHT22;8614;48.522;9.206;2023-04-03T11:03:06;7.90;99.90
16995;DHT22;8614;48.522;9.206;2023-04-03T11:05:39;8.10;99.90
16995;DHT22;8614;48.522;9.206;2023-04-03T11:08:13;8.40;99.90
16995;DHT22;8614;48.522;9.206;2023-04-03T11:10:46;8.30;99.90
16995;DHT22;8614;48.522;9.206;2023-04-03T11:13:18;8.30;99.90
16995;DHT22;8614;48.522;9.206;2023-04-03T11:15:46;8.50;99.90
16995;DHT22;8614;48.522;9.206;2023-04-03T11:18:17;8.40;99.90
16995;DHT22;8614;48.522;9.206;2023-04-03T11:20:59;8.30;99.90
16995;DHT22;8614;48.522;9.206;2023-04-03T11:23:31;7.90;99.90
16995;DHT22;8614;48.522;9.206;2023-04-03T11:26:06;7.80;99.90
16995;DHT22;8614;48.522;9.206;2023-04-03T11:28:33;7.80;99.90
16995;DHT22;8614;48.522;9.206;2023-04-03T11:31:11;7.90;99.90
16995;DHT22;8614;48.522;9.206;2023-04-03T11:33:45;8.00;99.90
16995;DHT22;8614;48.522;9.206;2023-04-03T11:36:21;8.00;99.90
16995;DHT22;8614;48.522;9.206;2023-04-03T11:38:53;8.00;99.90
16995;DHT22;8614;48.522;9.206;2023-04-03T11:41:25;7.90;99.90
16995;DHT22;8614;48.522;9.206;2023-04-03T11:43:58;8.00;99.90
16995;DHT22;8614;48.522;9.206;2023-04-03T11:46:53;8.10;99.90
16995;DHT22;8614;48.522;9.206;2023-04-03T11:49:56;8.30;99.90
16995;DHT22;8614;48.522;9.206;2023-04-03T11:52:58;8.10;99.90
16995;DHT22;8614;48.522;9.206;2023-04-03T11:58:30;7.90;99.90
16995;DHT22;8614;48.522;9.206;2023-04-03T12:01:03;7.90;99.90
16995;DHT22;8614;48.522;9.206;2023-04-03T12:03:56;7.60;99.90
16995;DHT22;8614;48.522;9.206;2023-04-03T12:07:02;7.50;99.90
16995;DHT22;8614;48.522;9.206;2023-04-03T12:12:56;7.40;99.90
16995;DHT22;8614;48.522;9.206;2023-04-03T12:21:19;7.60;99.90
16995;DHT22;8614;48.522;9.206;2023-04-03T12:24:00;7.70;99.90
16995;DHT22;8614;48.522;9.206;2023-04-03T12:26:31;7.70;99.90
16995;DHT22;8614;48.522;9.206;2023-04-03T12:29:02;7.90;99.90
16995;DHT22;8614;48.522;9.206;2023-04-03T12:31:42;7.90;99.90
16995;DHT22;8614;48.522;9.206;2023-04-03T12:34:24;7.80;99.90
16995;DHT22;8614;48.522;9.206;2023-04-03T12:36:59;7.90;99.90
16995;DHT22;8614;48.522;9.206;2023-04-03T12:39:48;8.00;99.90
16995;DHT22;8614;48.522;9.206;2023-04-03T12:42:40;8.10;99.90
16995;DHT22;8614;48.522;9.206;2023-04-03T12:45:16;8.10;99.90
16995;DHT22;8614;48.522;9.206;2023-04-03T12:47:45;8.20;99.90
16995;DHT22;8614;48.522;9.206;2023-04-03T12:50:21;8.30;99.90
16995;DHT22;8614;48.522;9.206;2023-04-03T12:52:54;8.40;99.90
16995;DHT22;8614;48.522;9.206;2023-04-03T12:55:23;8.50;99.90
16995;DHT22;8614;48.522;9.206;2023-04-03T12:57:50;8.40;99.90
16995;DHT22;8614;48.522;9.206;2023-04-03T13:00:31;8.30;99.90
16995;DHT22;8614;48.522;9.206;2023-04-03T13:03:00;8.40;99.90
16995;DHT22;8614;48.522;9.206;2023-04-03T13:05:28;8.30;99.90
16995;DHT22;8614;48.522;9.206;2023-04-03T13:07:59;8.30;99.90
16995;DHT22;8614;48.522;9.206;2023-04-03T13:10:27;8.20;99.90
16995;DHT22;8614;48.522;9.206;2023-04-03T13:12:56;8.10;99.90
16995;DHT22;8614;48.522;9.206;2023-04-03T13:15:27;7.90;99.90
16995;DHT22;8614;48.522;9.206;2023-04-03T13:17:54;7.90;99.90
16995;DHT22;8614;48.522;9.206;2023-04-03T13:20:25;8.10;99.90
16995;DHT22;8614;48.522;9.206;2023-04-03T13:22:56;8.20;99.90
16995;DHT22;8614;48.522;9.206;2023-04-03T13:25:27;8.20;99.90
16995;DHT22;8614;48.522;9.206;2023-04-03T13:27:55;8.20;99.90
16995;DHT22;8614;48.522;9.206;2023-04-03T13:30:28;7.90;99.90
16995;DHT22;8614;48.522;9.206;2023-04-03T13:32:57;7.90;99.90
16995;DHT22;8614;48.522;9.206;2023-04-03T13:35:27;8.10;99.90
16995;DHT22;8614;48.522;9.206;2023-04-03T13:37:57;8.20;99.90
16995;DHT22;8614;48.522;9.206;2023-04-03T13:40:24;8.10;99.90
16995;DHT22;8614;48.522;9.206;2023-04-03T13:43:00;7.90;99.90
16995;DHT22;8614;48.522;9.206;2023-04-03T13:45:29;7.90;99.90
16995;DHT22;8614;48.522;9.206;2023-04-03T13:48:09;7.70;99.90
16995;DHT22;8614;48.522;9.206;2023-04-03T13:50:51;7.60;99.90
16995;DHT22;8614;48.522;9.206;2023-04-03T13:53:18;7.70;99.90
16995;DHT22;8614;48.522;9.206;2023-04-03T13:55:58;7.80;99.90
16995;DHT22;8614;48.522;9.206;2023-04-03T13:58:27;7.80;99.90
16995;DHT22;8614;48.522;9.206;2023-04-03T14:01:05;7.80;99.90
16995;DHT22;8614;48.522;9.206;2023-04-03T14:03:37;7.80;99.90
16995;DHT22;8614;48.522;9.206;2023-04-03T14:06:07;7.70;99.90
16995;DHT22;8614;48.522;9.206;2023-04-03T14:08:35;7.80;99.90
16995;DHT22;8614;48.522;9.206;2023-04-03T14:11:02;7.90;99.90
16995;DHT22;8614;48.522;9.206;2023-04-03T14:13:30;7.90;99.90
16995;DHT22;8614;48.522;9.206;2023-04-03T14:15:59;7.70;99.90
16995;DHT22;8614;48.522;9.206;2023-04-03T14:18:26;8.00;99.90
16995;DHT22;8614;48.522;9.206;2023-04-03T14:20:53;8.10;99.90
16995;DHT22;8614;48.522;9.206;2023-04-03T14:23:20;8.30;99.90
16995;DHT22;8614;48.522;9.206;2023-04-03T14:25:47;8.30;99.90
16995;DHT22;8614;48.522;9.206;2023-04-03T14:28:17;8.30;99.90
16995;DHT22;8614;48.522;9.206;2023-04-03T14:30:46;8.30;99.90
16995;DHT22;8614;48.522;9.206;2023-04-03T14:33:16;8.30;99.90
16995;DHT22;8614;48.522;9.206;2023-04-03T14:35:43;8.10;99.90
16995;DHT22;8614;48.522;9.206;2023-04-03T14:38:23;7.90;99.90
16995;DHT22;8614;48.522;9.206;2023-04-03T14:40:51;7.90;99.90
16995;DHT22;8614;48.522;9.206;2023-04-03T14:43:18;7.80;99.90
16995;DHT22;8614;48.522;9.206;2023-04-03T14:45:45;7.80;99.90
16995;DHT22;8614;48.522;9.206;2023-04-03T14:48:17;7.80;99.90
16995;DHT22;8614;48.522;9.206;2023-04-03T14:50:44;8.00;99.90
16995;DHT22;8614;48.522;9.206;2023-04-03T14:53:12;8.10;99.90
16995;DHT22;8614;48.522;9.206;2023-04-03T14:55:40;8.10;99.90
16995;DHT22;8614;48.522;9.206;2023-04-03T14:58:11;7.90;99.90
16995;DHT22;8614;48.522;9.206;2023-04-03T15:00:38;7.90;99.90
16995;DHT22;8614;48.522;9.206;2023-04-03T15:03:05;7.80;99.90
16995;DHT22;8614;48.522;9.206;2023-04-03T15:05:35;7.80;99.90
16995;DHT22;8614;48.522;9.206;2023-04-03T15:08:02;7.80;99.90
16995;DHT22;8614;48.522;9.206;2023-04-03T15:10:30;7.80;99.90
16995;DHT22;8614;48.522;9.206;2023-04-03T15:12:58;7.90;99.90
16995;DHT22;8614;48.522;9.206;2023-04-03T15:15:28;7.90;99.90
16995;DHT22;8614;48.522;9.206;2023-04-03T15:17:56;7.90;99.90
16995;DHT22;8614;48.522;9.206;2023-04-03T15:20:24;7.80;99.90
16995;DHT22;8614;48.522;9.206;2023-04-03T15:22:53;7.80;99.90
16995;DHT22;8614;48.522;9.206;2023-04-03T15:25:21;7.70;99.90
16995;DHT22;8614;48.522;9.206;2023-04-03T15:27:48;7.80;99.90
16995;DHT22;8614;48.522;9.206;2023-04-03T15:30:17;7.70;99.90
16995;DHT22;8614;48.522;9.206;2023-04-03T15:32:44;7.40;99.90
16995;DHT22;8614;48.522;9.206;2023-04-03T15:35:11;7.40;99.90
16995;DHT22;8614;48.522;9.206;2023-04-03T15:37:38;7.40;99.90
16995;DHT22;8614;48.522;9.206;2023-04-03T15:40:07;7.50;99.90
16995;DHT22;8614;48.522;9.206;2023-04-03T15:42:35;7.60;99.90
16995;DHT22;8614;48.522;9.206;2023-04-03T15:45:02;7.50;99.90
16995;DHT22;8614;48.522;9.206;2023-04-03T15:47:29;7.60;99.90
16995;DHT22;8614;48.522;9.206;2023-04-03T15:49:56;7.60;99.90
16995;DHT22;8614;48.522;9.206;2023-04-03T15:52:23;7.60;99.90
16995;DHT22;8614;48.522;9.206;2023-04-03T15:54:50;7.60;99.90
16995;DHT22;8614;48.522;9.206;2023-04-03T15:57:18;7.70;99.90
16995;DHT22;8614;48.522;9.206;2023-04-03T15:59:45;7.60;99.90
16995;DHT22;8614;48.522;9.206;2023-04-03T16:02:12;7.40;99.90
16995;DHT22;8614;48.522;9.206;2023-04-03T16:04:39;7.30;99.90
16995;DHT22;8614;48.522;9.206;2023-04-03T16:07:06;7.30;99.90
16995;DHT22;8614;48.522;9.206;2023-04-03T16:09:33;7.30;99.90
16995;DHT22;8614;48.522;9.206;2023-04-03T16:12:01;7.30;99.90
16995;DHT22;8614;48.522;9.206;2023-04-03T16:14:30;7.40;99.90
16995;DHT22;8614;48.522;9.206;2023-04-03T16:16:56;7.40;99.90
16995;DHT22;8614;48.522;9.206;2023-04-03T16:19:24;7.40;99.90
16995;DHT22;8614;48.522;9.206;2023-04-03T16:21:51;7.40;99.90
16995;DHT22;8614;48.522;9.206;2023-04-03T16:24:18;7.30;99.90
16995;DHT22;8614;48.522;9.206;2023-04-03T16:26:45;7.20;99.90
16995;DHT22;8614;48.522;9.206;2023-04-03T16:29:11;7.20;99.90
16995;DHT22;8614;48.522;9.206;2023-04-03T16:31:39;7.10;99.90
16995;DHT22;8614;48.522;9.206;2023-04-03T16:34:06;7.10;99.90
16995;DHT22;8614;48.522;9.206;2023-04-03T16:36:33;7.00;99.90
16995;DHT22;8614;48.522;9.206;2023-04-03T16:39:00;7.00;99.90
16995;DHT22;8614;48.522;9.206;2023-04-03T16:41:27;6.90;99.90
16995;DHT22;8614;48.522;9.206;2023-04-03T16:43:53;6.80;99.90
16995;DHT22;8614;48.522;9.206;2023-04-03T16:46:20;6.70;99.90
16995;DHT22;8614;48.522;9.206;2023-04-03T16:48:48;6.60;99.90
16995;DHT22;8614;48.522;9.206;2023-04-03T16:51:15;6.60;99.90
16995;DHT22;8614;48.522;9.206;2023-04-03T16:53:42;6.60;99.90
16995;DHT22;8614;48.522;9.206;2023-04-03T16:56:09;6.60;99.90
16995;DHT22;8614;48.522;9.206;2023-04-03T16:58:35;6.70;99.90
16995;DHT22;8614;48.522;9.206;2023-04-03T17:01:09;6.70;99.90
16995;DHT22;8614;48.522;9.206;2023-04-03T17:03:36;6.60;99.90
16995;DHT22;8614;48.522;9.206;2023-04-03T17:06:05;6.50;99.90
16995;DHT22;8614;48.522;9.206;2023-04-03T17:08:32;6.50;99.90
16995;DHT22;8614;48.522;9.206;2023-04-03T17:10:58;6.50;99.90
16995;DHT22;8614;48.522;9.206;2023-04-03T17:13:25;6.50;99.90
16995;DHT22;8614;48.522;9.206;2023-04-03T17:15:56;6.50;99.90
16995;DHT22;8614;48.522;9.206;2023-04-03T17:18:23;6.40;99.90
16995;DHT22;8614;48.522;9.206;2023-04-03T17:20:50;6.50;99.90
16995;DHT22;8614;48.522;9.206;2023-04-03T17:23:19;6.40;99.90
16995;DHT22;8614;48.522;9.206;2023-04-03T17:25:45;6.30;99.90
16995;DHT22;8614;48.522;9.206;2023-04-03T17:28:12;6.30;99.90
16995;DHT22;8614;48.522;9.206;2023-04-03T17:30:39;6.30;99.90
16995;DHT22;8614;48.522;9.206;2023-04-03T17:33:06;6.20;99.90
16995;DHT22;8614;48.522;9.206;2023-04-03T17:35:33;6.20;99.90
16995;DHT22;8614;48.522;9.206;2023-04-03T17:37:59;6.20;99.90
16995;DHT22;8614;48.522;9.206;2023-04-03T17:40:28;6.20;99.90
16995;DHT22;8614;48.522;9.206;2023-04-03T17:42:54;6.10;99.90
16995;DHT22;8614;48.522;9.206;2023-04-03T17:45:21;6.00;99.90
16995;DHT22;8614;48.522;9.206;2023-04-03T17:47:50;5.90;99.90
16995;DHT22;8614;48.522;9.206;2023-04-03T17:50:17;5.90;99.90
16995;DHT22;8614;48.522;9.206;2023-04-03T17:52:44;5.80;99.90
16995;DHT22;8614;48.522;9.206;2023-04-03T17:55:11;5.70;99.90
16995;DHT22;8614;48.522;9.206;2023-04-03T17:57:41;5.60;99.90
16995;DHT22;8614;48.522;9.206;2023-04-03T18:00:09;5.50;99.90
16995;DHT22;8614;48.522;9.206;2023-04-03T18:02:39;5.40;99.90
16995;DHT22;8614;48.522;9.206;2023-04-03T18:05:07;5.30;99.90
16995;DHT22;8614;48.522;9.206;2023-04-03T18:07:35;5.30;99.90
16995;DHT22;8614;48.522;9.206;2023-04-03T18:10:03;5.20;99.90
16995;DHT22;8614;48.522;9.206;2023-04-03T18:12:30;5.20;99.90
16995;DHT22;8614;48.522;9.206;2023-04-03T18:14:59;5.20;99.90
16995;DHT22;8614;48.522;9.206;2023-04-03T18:17:26;5.20;99.90
16995;DHT22;8614;48.522;9.206;2023-04-03T18:19:53;5.20;99.90
16995;DHT22;8614;48.522;9.206;2023-04-03T18:22:22;5.10;99.90
16995;DHT22;8614;48.522;9.206;2023-04-03T18:24:50;5.10;99.90
16995;DHT22;8614;48.522;9.206;2023-04-03T18:27:20;5.00;99.90
16995;DHT22;8614;48.522;9.206;2023-04-03T18:29:49;5.00;99.90
16995;DHT22;8614;48.522;9.206;2023-04-03T18:32:20;4.90;99.90